Time;durP1;ratioP1;P1;durP2;ratioP2;P2;SDS_P1;SDS_P2;PMS_P1;PMS_P2;Temp;Humidity;BMP_temperature;BMP_pressure;BME280_temperature;BME280_humidity;BME280_pressure;Samples;Min_cycle;Max_cycle;Signal;HPM_P1;HPM_P2
2021/05/23 00:00:52;;;;;;;6.20;0.70;;;;;;;9.03;66.86;96208.50;3549856;40;20835;-74
2021/05/23 00:03:20;;;;;;;1.57;0.70;;;;;;;9.08;66.52;96211.63;3553787;40;20555;-73
2021/05/23 00:05:51;;;;;;;1.50;0.60;;;;;;;9.14;66.28;96211.22;3545503;40;20458;-74
2021/05/23 00:08:20;;;;;;;5.87;0.70;;;;;;;9.19;66.19;96208.25;3549274;40;20442;-73
2021/05/23 00:10:51;;;;;;;1.67;0.80;;;;;;;9.22;65.99;96208.88;3548650;40;20910;-73
2021/05/23 00:13:23;;;;;;;3.17;0.77;;;;;;;9.20;66.01;96192.50;3547450;40;21008;-72
2021/05/23 00:15:55;;;;;;;0.90;0.60;;;;;;;9.22;66.05;96206.28;3542611;40;20706;-73
2021/05/23 00:18:23;;;;;;;8.03;0.90;;;;;;;9.22;66.29;96203.66;3549974;40;21113;-74
2021/05/23 00:20:52;;;;;;;7.20;0.73;;;;;;;9.14;66.70;96203.38;3546668;40;21113;-73
2021/05/23 00:23:20;;;;;;;1.30;0.80;;;;;;;9.12;66.65;96207.03;3548275;40;20473;-73
2021/05/23 00:25:47;;;;;;;2.20;0.90;;;;;;;8.86;67.03;96160.88;3548587;40;20471;-73
2021/05/23 00:28:15;;;;;;;1.10;0.63;;;;;;;9.16;67.19;96204.09;3550224;40;20505;-74
2021/05/23 00:30:42;;;;;;;1.40;0.80;;;;;;;9.19;66.32;96203.91;3543191;40;20547;-74
2021/05/23 00:33:11;;;;;;;3.07;0.80;;;;;;;9.14;67.27;96199.94;3550452;40;20492;-73
2021/05/23 00:35:39;;;;;;;3.50;0.83;;;;;;;9.09;67.12;96208.06;3550962;40;20467;-73
2021/05/23 00:38:09;;;;;;;4.03;0.80;;;;;;;9.04;67.63;96210.19;3543245;40;20711;-73
2021/05/23 00:40:38;;;;;;;1.90;0.97;;;;;;;8.98;68.18;96211.44;3546804;40;20735;-73
2021/05/23 00:43:09;;;;;;;0.90;0.70;;;;;;;9.06;68.03;96208.28;3547553;40;20480;-72
2021/05/23 00:45:36;;;;;;;1.10;0.70;;;;;;;8.98;68.17;96208.81;3547752;40;20440;-72
2021/05/23 00:48:05;;;;;;;10.13;0.80;;;;;;;8.89;68.52;96207.66;3552457;40;20452;-72
2021/05/23 00:50:32;;;;;;;2.10;0.80;;;;;;;8.97;68.28;96201.91;3548943;40;20700;-72
2021/05/23 00:53:02;;;;;;;1.40;0.70;;;;;;;8.96;68.83;96213.31;3537036;40;20467;-72
2021/05/23 00:55:31;;;;;;;7.83;1.07;;;;;;;8.97;68.71;96206.31;3545929;40;20922;-73
2021/05/23 00:57:58;;;;;;;1.63;0.80;;;;;;;8.90;69.17;96193.66;3547791;40;20474;-72
2021/05/23 01:01:08;;;;;;;2.90;0.80;;;;;;;8.98;69.08;96202.78;3545223;40;20456;-73
2021/05/23 01:03:53;;;;;;;2.30;1.00;;;;;;;8.93;70.11;96202.22;3547900;40;20870;-73
2021/05/23 01:06:21;;;;;;;2.00;0.67;;;;;;;8.79;70.53;96206.63;3547331;40;20466;-75
2021/05/23 01:08:51;;;;;;;1.03;0.63;;;;;;;8.74;71.25;96218.31;3543714;40;20663;-73
2021/05/23 01:11:55;;;;;;;1.37;0.73;;;;;;;8.78;70.54;96212.78;3549090;40;20811;-73
2021/05/23 01:14:58;;;;;;;7.30;0.77;;;;;;;8.63;71.20;96216.44;3549988;40;20898;-73
2021/05/23 01:17:45;;;;;;;1.67;0.80;;;;;;;8.65;71.13;96219.78;3548971;40;20781;-75
2021/05/23 01:20:46;;;;;;;3.23;0.80;;;;;;;8.59;71.31;96225.41;3545010;40;21157;-74
2021/05/23 01:23:23;;;;;;;2.60;0.60;;;;;;;8.50;71.85;96226.84;3547645;40;20838;-73
2021/05/23 01:25:55;;;;;;;1.63;0.83;;;;;;;8.50;71.90;96238.09;3544087;40;20521;-75
2021/05/23 01:28:23;;;;;;;2.13;0.60;;;;;;;8.44;72.19;96238.50;3542148;40;20532;-73
2021/05/23 01:30:52;;;;;;;1.30;0.67;;;;;;;8.45;72.29;96241.97;3544056;40;20478;-74
2021/05/23 01:33:21;;;;;;;6.33;0.80;;;;;;;8.51;72.21;96239.78;3547583;40;20899;-74
2021/05/23 01:35:55;;;;;;;2.17;0.90;;;;;;;8.50;72.33;96234.66;3547489;40;21035;-74
2021/05/23 01:38:24;;;;;;;1.20;0.77;;;;;;;8.46;72.31;96241.03;3542612;40;20428;-73
2021/05/23 01:40:56;;;;;;;2.10;0.70;;;;;;;8.49;72.58;96249.50;3547751;40;20471;-76
2021/05/23 01:43:24;;;;;;;7.20;1.00;;;;;;;8.50;72.97;96242.50;3552837;40;20452;-74
2021/05/23 01:45:53;;;;;;;0.90;0.60;;;;;;;8.50;73.45;96243.31;3546136;40;20531;-74
2021/05/23 01:48:20;;;;;;;3.73;1.23;;;;;;;8.44;73.76;96238.50;3550936;40;20904;-75
2021/05/23 01:50:49;;;;;;;1.43;0.80;;;;;;;8.44;74.02;96256.78;3549354;40;20840;-75
2021/05/23 01:53:17;;;;;;;2.03;0.87;;;;;;;8.41;75.13;96263.94;3552427;40;20508;-74
2021/05/23 01:55:45;;;;;;;1.20;0.80;;;;;;;8.38;76.04;96264.16;3549568;40;20545;-74
2021/05/23 01:58:13;;;;;;;1.87;0.60;;;;;;;8.29;77.06;96265.56;3545233;40;20467;-74
2021/05/23 02:00:43;;;;;;;1.40;0.87;;;;;;;8.21;78.65;96275.66;3549011;40;21109;-73
2021/05/23 02:03:13;;;;;;;5.60;0.80;;;;;;;8.15;80.64;96282.13;3551032;40;20710;-73
2021/05/23 02:05:44;;;;;;;2.50;0.70;;;;;;;8.08;80.31;96299.13;3548891;40;20686;-73
2021/05/23 02:08:12;;;;;;;1.67;1.07;;;;;;;7.93;82.41;96295.69;3544233;40;20449;-74
2021/05/23 02:10:40;;;;;;;2.90;1.00;;;;;;;7.88;83.01;96305.59;3543083;40;20701;-74
2021/05/23 02:13:08;;;;;;;3.53;0.70;;;;;;;7.79;84.06;96321.78;3546352;40;20468;-71
2021/05/23 02:15:38;;;;;;;1.00;0.67;;;;;;;7.66;84.08;96309.53;3542114;40;20841;-74
2021/05/23 02:18:08;;;;;;;0.90;0.80;;;;;;;7.55;84.96;96311.94;3544768;40;20756;-74
2021/05/23 02:20:37;;;;;;;2.60;0.90;;;;;;;7.38;83.39;96304.31;3549187;40;20522;-75
2021/05/23 02:23:07;;;;;;;4.20;0.80;;;;;;;7.28;84.49;96312.69;3551339;40;20840;-72
2021/05/23 02:25:35;;;;;;;2.00;0.80;;;;;;;7.25;85.47;96307.69;3544148;40;20847;-73
2021/05/23 02:28:05;;;;;;;2.30;0.73;;;;;;;7.15;85.50;96301.31;3546074;40;20487;-72
2021/05/23 02:30:36;;;;;;;6.37;1.37;;;;;;;7.11;85.66;96308.50;3546470;40;20531;-73
2021/05/23 02:33:06;;;;;;;3.03;0.70;;;;;;;7.03;85.43;96295.06;3546722;40;20447;-72
2021/05/23 02:35:37;;;;;;;2.87;0.60;;;;;;;7.08;84.88;96292.22;3545377;40;20839;-71
2021/05/23 02:38:06;;;;;;;4.20;0.90;;;;;;;7.04;85.90;96290.72;3542759;40;20519;-70
2021/05/23 02:40:35;;;;;;;1.33;0.70;;;;;;;6.98;85.23;96293.66;3547206;40;21155;-72
2021/05/23 02:43:04;;;;;;;1.33;0.50;;;;;;;6.92;85.18;96289.69;3550882;40;20436;-72
2021/05/23 02:45:34;;;;;;;1.90;0.60;;;;;;;6.89;84.70;96282.03;3547304;40;21209;-72
2021/05/23 02:48:05;;;;;;;3.23;0.80;;;;;;;6.86;84.33;96272.66;3547044;40;20777;-72
2021/05/23 02:50:35;;;;;;;1.00;0.60;;;;;;;6.89;83.05;96280.28;3542525;40;20474;-72
2021/05/23 02:53:05;;;;;;;0.80;0.50;;;;;;;6.87;83.55;96268.28;3542021;40;20934;-72
2021/05/23 02:55:34;;;;;;;1.20;0.60;;;;;;;6.88;83.04;96268.19;3546623;40;20456;-71
2021/05/23 02:58:02;;;;;;;2.00;0.60;;;;;;;6.88;83.23;96283.81;3548235;40;20827;-72
2021/05/23 03:00:30;;;;;;;1.50;0.60;;;;;;;6.82;83.58;96283.31;3546702;40;20515;-72
2021/05/23 03:02:58;;;;;;;2.57;0.50;;;;;;;6.80;83.29;96278.22;3536565;40;20891;-72
2021/05/23 03:05:26;;;;;;;0.80;0.50;;;;;;;6.81;82.98;96282.50;3545228;40;20688;-72
2021/05/23 03:07:56;;;;;;;8.33;1.13;;;;;;;6.74;83.80;96286.38;3550851;40;20861;-74
2021/05/23 03:10:26;;;;;;;1.23;0.50;;;;;;;6.69;84.77;96299.66;3548585;40;20882;-73
2021/05/23 03:12:55;;;;;;;1.17;0.63;;;;;;;6.56;85.37;96290.88;3550931;40;20471;-73
2021/05/23 03:15:24;;;;;;;1.60;0.57;;;;;;;6.71;85.45;96321.22;3547989;40;20886;-74
2021/05/23 03:17:52;;;;;;;1.10;0.70;;;;;;;6.68;85.43;96325.78;3547916;40;20478;-74
2021/05/23 03:20:21;;;;;;;1.93;0.60;;;;;;;6.62;85.42;96333.94;3547645;40;20553;-73
2021/05/23 03:22:54;;;;;;;3.00;0.63;;;;;;;6.60;85.98;96331.41;3543724;40;20454;-72
2021/05/23 03:25:22;;;;;;;1.57;0.57;;;;;;;6.64;85.94;96334.69;3546575;40;20468;-72
2021/05/23 03:27:50;;;;;;;4.10;0.83;;;;;;;6.63;85.68;96325.22;3543057;40;20492;-73
2021/05/23 03:30:21;;;;;;;2.40;0.70;;;;;;;6.42;87.81;96329.88;3536880;40;20506;-72
2021/05/23 03:32:48;;;;;;;1.37;0.70;;;;;;;6.56;85.83;96326.47;3535933;40;20459;-73
2021/05/23 03:35:16;;;;;;;0.70;0.50;;;;;;;6.64;84.85;96324.28;3548835;40;20851;-72
2021/05/23 03:37:44;;;;;;;6.10;0.70;;;;;;;6.58;85.16;96330.66;3542457;40;20535;-74
2021/05/23 03:40:15;;;;;;;2.10;0.70;;;;;;;6.60;85.02;96339.22;3546862;40;20527;-73
2021/05/23 03:42:44;;;;;;;0.90;0.60;;;;;;;6.65;84.76;96344.19;3544785;40;20505;-73
2021/05/23 03:45:12;;;;;;;4.10;0.80;;;;;;;6.67;84.09;96345.75;3543941;40;20852;-73
2021/05/23 03:47:40;;;;;;;1.43;0.70;;;;;;;6.58;84.60;96358.44;3543338;40;20945;-75
2021/05/23 03:50:09;;;;;;;2.13;0.70;;;;;;;6.60;83.96;96361.81;3539032;40;20878;-74
2021/05/23 03:52:37;;;;;;;0.80;0.60;;;;;;;6.53;84.87;96359.56;3546288;40;20466;-73
2021/05/23 03:55:06;;;;;;;2.83;0.60;;;;;;;6.53;84.95;96367.34;3552940;40;20778;-73
2021/05/23 03:57:35;;;;;;;26.37;0.90;;;;;;;6.59;84.48;96368.78;3545044;40;20464;-75
2021/05/23 04:00:04;;;;;;;2.90;0.60;;;;;;;6.49;85.00;96373.66;3542002;40;21103;-74
2021/05/23 04:02:31;;;;;;;1.87;0.60;;;;;;;6.36;84.47;96362.25;3542344;40;20507;-74
2021/05/23 04:04:59;;;;;;;1.27;0.60;;;;;;;6.49;84.66;96385.84;3544953;40;20835;-75
2021/05/23 04:07:28;;;;;;;0.80;0.57;;;;;;;6.44;84.23;96388.69;3549223;40;20472;-74
2021/05/23 04:09:57;;;;;;;0.90;0.60;;;;;;;6.51;84.72;96382.22;3543555;40;20898;-74
2021/05/23 04:12:28;;;;;;;4.67;0.70;;;;;;;6.50;84.28;96385.72;3545601;40;20569;-73
2021/05/23 04:14:56;;;;;;;3.23;0.70;;;;;;;6.53;84.36;96395.16;3549084;40;20447;-74
2021/05/23 04:17:25;;;;;;;0.80;0.50;;;;;;;6.53;84.55;96400.34;3544003;40;20512;-75
2021/05/23 04:19:54;;;;;;;1.20;0.80;;;;;;;6.60;84.50;96403.44;3552205;40;20444;-75
2021/05/23 04:22:21;;;;;;;3.72;0.80;;;;;;;6.70;84.25;96412.41;3549111;40;20497;-74
2021/05/23 04:24:49;;;;;;;0.90;0.77;;;;;;;6.70;83.37;96407.19;3545731;40;20244;-74
2021/05/23 04:27:17;;;;;;;3.40;0.80;;;;;;;6.79;83.99;96405.84;3541733;40;20468;-74
2021/05/23 04:29:44;;;;;;;0.90;0.67;;;;;;;6.93;83.73;96411.94;3543444;40;20443;-74
2021/05/23 04:32:13;;;;;;;1.73;0.73;;;;;;;6.97;85.11;96416.97;3548214;40;20869;-73
2021/05/23 04:34:41;;;;;;;1.17;0.80;;;;;;;7.09;85.55;96418.88;3547506;40;20698;-74
2021/05/23 04:37:08;;;;;;;2.47;0.83;;;;;;;7.02;85.64;96422.78;3545074;40;20793;-74
2021/05/23 04:39:35;;;;;;;3.20;0.80;;;;;;;7.16;84.81;96420.19;3551417;40;20768;-74
2021/05/23 04:42:03;;;;;;;0.87;0.50;;;;;;;7.01;84.30;96411.50;3550783;40;20486;-74
2021/05/23 04:44:51;;;;;;;1.27;0.70;;;;;;;7.07;82.94;96424.16;3545411;40;20452;-73
2021/05/23 04:47:20;;;;;;;1.73;0.67;;;;;;;7.12;81.70;96421.31;3551231;40;20456;-74
2021/05/23 04:49:47;;;;;;;1.53;0.60;;;;;;;7.31;82.92;96434.94;3552544;40;21118;-74
2021/05/23 04:52:15;;;;;;;2.27;0.70;;;;;;;7.15;83.64;96421.13;3549018;40;20836;-76
2021/05/23 04:54:43;;;;;;;1.40;0.60;;;;;;;7.21;83.05;96427.75;3546137;40;20832;-73
2021/05/23 04:57:11;;;;;;;1.87;0.73;;;;;;;7.31;81.58;96447.97;3542659;40;20791;-74
2021/05/23 04:59:38;;;;;;;1.37;0.60;;;;;;;7.37;82.32;96454.59;3547538;40;20455;-73
2021/05/23 05:02:05;;;;;;;1.57;0.70;;;;;;;7.33;83.62;96453.94;3546573;40;20482;-74
2021/05/23 05:04:34;;;;;;;1.83;0.70;;;;;;;7.33;82.37;96447.84;3548849;40;20463;-74
2021/05/23 05:07:02;;;;;;;1.00;0.60;;;;;;;7.53;82.63;96457.13;3545374;40;20572;-73
2021/05/23 05:09:29;;;;;;;1.53;0.70;;;;;;;7.50;83.35;96465.97;3544663;40;20509;-75
2021/05/23 05:11:57;;;;;;;3.20;0.73;;;;;;;7.32;83.60;96470.47;3549876;40;20490;-74
2021/05/23 05:14:24;;;;;;;2.50;0.93;;;;;;;7.30;84.54;96479.31;3545308;40;20467;-75
2021/05/23 05:16:52;;;;;;;1.53;0.70;;;;;;;7.53;82.79;96483.19;3547441;40;20473;-73
2021/05/23 05:19:19;;;;;;;1.63;0.70;;;;;;;7.72;82.47;96489.00;3552957;40;20435;-75
2021/05/23 05:21:48;;;;;;;1.63;0.70;;;;;;;7.60;82.93;96489.72;3545279;40;20550;-74
2021/05/23 05:24:15;;;;;;;1.30;0.60;;;;;;;7.61;84.51;96494.00;3549305;40;20502;-74
2021/05/23 05:26:43;;;;;;;1.43;0.70;;;;;;;7.44;85.43;96499.34;3545070;40;20914;-74
2021/05/23 05:29:10;;;;;;;3.73;0.73;;;;;;;7.78;84.53;96500.00;3549648;40;20479;-74
2021/05/23 05:31:38;;;;;;;1.93;0.77;;;;;;;7.85;83.50;96503.91;3549891;40;20543;-73
2021/05/23 05:34:05;;;;;;;3.97;1.13;;;;;;;7.81;83.94;96510.25;3543455;40;20615;-73
2021/05/23 05:36:32;;;;;;;4.50;1.40;;;;;;;7.56;84.11;96500.41;3544245;40;20463;-74
2021/05/23 05:39:01;;;;;;;3.10;0.77;;;;;;;7.91;84.54;96517.41;3546575;40;20891;-72
2021/05/23 05:41:29;;;;;;;3.10;0.63;;;;;;;7.80;83.25;96514.63;3543901;40;20714;-73
2021/05/23 05:43:56;;;;;;;3.00;1.40;;;;;;;7.88;83.32;96527.22;3546150;40;20481;-72
2021/05/23 05:46:23;;;;;;;4.10;1.63;;;;;;;7.82;83.31;96530.16;3543814;40;20500;-72
2021/05/23 05:48:54;;;;;;;1.80;0.80;;;;;;;7.79;82.64;96525.97;3551028;40;20533;-74
2021/05/23 05:51:21;;;;;;;2.60;0.80;;;;;;;7.76;83.81;96530.53;3544949;40;20883;-74
2021/05/23 05:53:50;;;;;;;2.77;0.70;;;;;;;7.71;84.52;96536.84;3546437;40;20481;-74
2021/05/23 05:56:18;;;;;;;1.83;0.70;;;;;;;7.80;83.78;96529.41;3546932;40;20451;-76
2021/05/23 05:58:46;;;;;;;3.47;1.23;;;;;;;7.94;83.38;96537.28;3547382;40;20504;-73
2021/05/23 06:01:14;;;;;;;2.20;1.40;;;;;;;7.83;83.44;96530.06;3550851;40;20466;-75
2021/05/23 06:03:41;;;;;;;3.43;1.23;;;;;;;7.90;83.58;96543.59;3545963;40;20456;-73
2021/05/23 06:06:09;;;;;;;4.50;0.90;;;;;;;8.16;83.24;96551.66;3547458;40;20463;-73
2021/05/23 06:08:36;;;;;;;2.30;0.90;;;;;;;8.02;79.63;96548.09;3546428;40;20437;-74
2021/05/23 06:11:03;;;;;;;3.47;1.17;;;;;;;8.16;79.34;96554.25;3542217;40;20464;-73
2021/05/23 06:13:32;;;;;;;1.40;0.90;;;;;;;8.01;78.92;96551.63;3547887;40;20452;-73
2021/05/23 06:15:59;;;;;;;2.80;0.80;;;;;;;8.12;80.04;96553.59;3536854;40;20841;-73
2021/05/23 06:18:27;;;;;;;3.43;0.80;;;;;;;7.92;79.65;96526.09;3551670;40;20443;-73
2021/05/23 06:20:55;;;;;;;2.50;0.77;;;;;;;8.15;78.42;96561.22;3538105;40;20479;-73
2021/05/23 06:23:23;;;;;;;8.03;1.00;;;;;;;8.27;78.00;96552.69;3549425;40;20985;-73
2021/05/23 06:25:51;;;;;;;1.03;0.60;;;;;;;8.29;76.96;96542.13;3550093;40;20482;-73
2021/05/23 06:28:18;;;;;;;1.80;0.73;;;;;;;8.32;77.91;96555.84;3549380;40;20745;-73
2021/05/23 06:30:47;;;;;;;3.40;0.70;;;;;;;8.62;78.10;96556.72;3536914;40;20811;-72
2021/05/23 06:33:16;;;;;;;1.10;0.70;;;;;;;8.85;76.36;96561.34;3543787;40;20472;-75
2021/05/23 06:35:43;;;;;;;1.47;0.80;;;;;;;8.54;76.21;96566.78;3543472;40;20436;-74
2021/05/23 06:38:11;;;;;;;1.70;0.90;;;;;;;8.55;77.02;96564.09;3543018;40;20465;-74
2021/05/23 06:40:38;;;;;;;6.77;1.20;;;;;;;8.51;77.69;96573.88;3548571;40;20751;-76
2021/05/23 06:43:05;;;;;;;2.57;1.20;;;;;;;8.46;77.52;96568.09;3550483;40;20793;-74
2021/05/23 06:45:33;;;;;;;3.47;0.80;;;;;;;8.42;79.33;96573.59;3551395;40;20503;-72
2021/05/23 06:48:01;;;;;;;1.23;0.90;;;;;;;8.58;79.27;96565.66;3550052;40;20463;-74
2021/05/23 06:50:29;;;;;;;0.97;0.70;;;;;;;8.96;78.29;96560.69;3551144;40;20755;-73
2021/05/23 06:52:56;;;;;;;9.50;0.90;;;;;;;9.19;76.93;96569.69;3536018;40;20853;-74
2021/05/23 06:55:24;;;;;;;2.00;0.67;;;;;;;9.47;76.55;96567.91;3545649;40;20746;-75
2021/05/23 06:57:52;;;;;;;1.43;0.80;;;;;;;9.51;75.26;96569.38;3537946;40;20481;-74
2021/05/23 07:00:21;;;;;;;2.03;0.80;;;;;;;9.39;76.15;96578.88;3544415;40;20558;-74
2021/05/23 07:02:48;;;;;;;1.10;0.70;;;;;;;9.36;76.97;96567.75;3544199;40;20532;-73
2021/05/23 07:05:17;;;;;;;1.47;0.90;;;;;;;9.22;78.07;96579.09;3544417;40;20441;-75
2021/05/23 07:07:44;;;;;;;7.07;2.43;;;;;;;9.23;75.60;96584.22;3539865;40;21205;-74
2021/05/23 07:10:12;;;;;;;0.97;0.73;;;;;;;8.85;76.98;96577.00;3547507;40;20443;-74
2021/05/23 07:12:39;;;;;;;5.20;1.23;;;;;;;8.51;79.71;96597.38;3551351;40;20460;-72
2021/05/23 07:15:08;;;;;;;1.43;0.77;;;;;;;8.55;82.99;96591.97;3546945;40;20452;-74
2021/05/23 07:17:36;;;;;;;1.93;1.00;;;;;;;8.37;83.54;96607.78;3540765;40;20922;-78
2021/05/23 07:20:06;;;;;;;3.90;0.90;;;;;;;8.09;82.08;96625.03;3551071;40;20465;-79
2021/05/23 07:22:34;;;;;;;0.80;0.50;;;;;;;7.50;82.77;96631.91;3545271;40;20491;-81
2021/05/23 07:25:03;;;;;;;8.97;0.80;;;;;;;7.32;82.18;96618.97;3547989;40;20883;-78
2021/05/23 07:27:30;;;;;;;1.10;0.70;;;;;;;7.00;81.11;96612.06;3546023;40;20489;-77
2021/05/23 07:29:59;;;;;;;1.00;0.87;;;;;;;6.98;82.29;96593.94;3546071;40;20675;-77
2021/05/23 07:32:26;;;;;;;3.23;0.90;;;;;;;7.03;81.97;96597.13;3543781;40;20889;-78
2021/05/23 07:34:53;;;;;;;1.33;0.60;;;;;;;7.23;79.66;96605.63;3546370;40;20740;-77
2021/05/23 07:37:21;;;;;;;1.27;0.80;;;;;;;7.36;81.33;96603.19;3542107;40;20532;-78
2021/05/23 07:39:54;;;;;;;1.17;0.70;;;;;;;7.80;79.19;96603.28;3548712;40;20476;-78
2021/05/23 07:42:21;;;;;;;4.57;0.83;;;;;;;8.13;77.87;96604.81;3544554;40;20488;-77
2021/05/23 07:44:52;;;;;;;1.37;0.87;;;;;;;8.56;76.72;96609.28;3549770;40;20848;-80
2021/05/23 07:47:19;;;;;;;2.03;0.70;;;;;;;8.97;76.18;96621.59;3552268;40;20541;-75
2021/05/23 07:49:47;;;;;;;3.40;1.00;;;;;;;9.09;74.75;96618.22;3551262;40;21194;-78
2021/05/23 07:52:17;;;;;;;7.63;0.70;;;;;;;9.37;74.34;96613.84;3546744;40;20544;-77
2021/05/23 07:54:44;;;;;;;1.20;0.60;;;;;;;9.69;72.90;96610.00;3548861;40;20804;-77
2021/05/23 07:57:13;;;;;;;2.20;1.00;;;;;;;9.86;75.97;96613.31;3544759;40;20450;-77
2021/05/23 07:59:40;;;;;;;3.40;1.17;;;;;;;10.07;73.32;96619.75;3544918;40;20515;-76
2021/05/23 08:02:08;;;;;;;1.53;0.97;;;;;;;10.13;75.04;96626.34;3550140;40;20929;-80
2021/05/23 08:04:36;;;;;;;2.53;0.83;;;;;;;10.15;71.93;96615.78;3540934;40;20771;-80
2021/05/23 08:07:03;;;;;;;1.10;0.60;;;;;;;10.08;70.84;96624.03;3542576;40;20831;-78
2021/05/23 08:09:31;;;;;;;2.07;0.70;;;;;;;10.27;72.62;96620.19;3540151;40;20840;-78
2021/05/23 08:11:59;;;;;;;2.80;1.73;;;;;;;10.61;71.56;96625.78;3550583;40;20720;-79
2021/05/23 08:14:27;;;;;;;1.20;0.60;;;;;;;10.36;70.18;96626.63;3550142;40;20792;-77
2021/05/23 08:16:54;;;;;;;6.10;1.00;;;;;;;10.60;71.19;96635.41;3543936;40;20492;-76
2021/05/23 08:19:22;;;;;;;1.70;0.60;;;;;;;10.58;72.23;96626.81;3548397;40;20446;-75
2021/05/23 08:21:53;;;;;;;5.13;0.97;;;;;;;10.31;72.29;96626.06;3550955;40;20475;-76
2021/05/23 08:24:21;;;;;;;1.63;0.60;;;;;;;10.47;71.53;96618.88;3548524;40;20905;-76
2021/05/23 08:26:56;;;;;;;6.60;2.60;;;;;;;10.77;69.90;96621.16;3549640;40;20494;-76
2021/05/23 08:29:27;;;;;;;7.30;1.30;;;;;;;11.01;70.00;96630.88;3548818;40;20464;-77
2021/05/23 08:31:55;;;;;;;6.53;0.80;;;;;;;11.11;68.43;96631.91;3548107;40;20472;-77
2021/05/23 08:34:22;;;;;;;2.70;0.70;;;;;;;11.68;66.16;96623.47;3543917;40;20834;-78
2021/05/23 08:36:54;;;;;;;3.40;0.80;;;;;;;11.96;66.60;96637.22;3540344;40;20461;-76
2021/05/23 08:39:21;;;;;;;6.63;0.97;;;;;;;12.15;65.35;96631.44;3545333;40;20455;-78
2021/05/23 08:41:51;;;;;;;5.00;1.03;;;;;;;12.32;64.06;96622.28;3548576;40;20695;-76
2021/05/23 08:44:20;;;;;;;3.13;0.70;;;;;;;12.05;60.29;96623.41;3545234;40;20545;-79
2021/05/23 08:46:53;;;;;;;5.87;0.90;;;;;;;11.58;61.17;96621.59;3536168;40;20468;-78
2021/05/23 08:49:24;;;;;;;2.00;0.70;;;;;;;11.62;59.30;96631.78;3548366;40;20465;-78
2021/05/23 08:51:52;;;;;;;1.63;0.80;;;;;;;11.46;57.91;96631.19;3542184;40;20836;-80
2021/05/23 08:54:20;;;;;;;2.37;0.90;;;;;;;12.01;61.03;96636.84;3548489;40;20795;-78
2021/05/23 08:56:50;;;;;;;1.30;0.63;;;;;;;12.37;58.77;96633.28;3549912;40;21118;-78
2021/05/23 08:59:18;;;;;;;1.47;0.70;;;;;;;12.36;57.82;96625.53;3544945;40;20470;-81
2021/05/23 09:01:46;;;;;;;1.83;0.90;;;;;;;12.27;58.74;96613.94;3546362;40;20714;-78
2021/05/23 09:04:18;;;;;;;1.20;0.60;;;;;;;11.83;58.95;96608.38;3550911;40;20487;-78
2021/05/23 09:06:47;;;;;;;5.30;1.13;;;;;;;11.30;59.15;96634.06;3549396;40;20828;-78
2021/05/23 09:09:17;;;;;;;1.20;0.60;;;;;;;11.23;57.70;96624.97;3551704;40;20445;-79
2021/05/23 09:11:53;;;;;;;2.03;0.60;;;;;;;11.46;58.14;96625.94;3548996;40;20850;-75
2021/05/23 09:14:32;;;;;;;2.97;0.73;;;;;;;11.47;60.52;96640.75;3546242;40;20457;-75
2021/05/23 09:16:59;;;;;;;4.30;1.10;;;;;;;11.35;59.59;96631.13;3550188;40;20483;-76
2021/05/23 09:19:27;;;;;;;6.73;0.90;;;;;;;11.27;61.23;96645.63;3548917;40;20570;-76
2021/05/23 09:21:55;;;;;;;2.97;0.87;;;;;;;11.31;64.30;96650.63;3543861;40;20760;-76
2021/05/23 09:24:23;;;;;;;2.73;0.80;;;;;;;10.77;67.77;96655.22;3546678;40;20478;-76
2021/05/23 09:26:54;;;;;;;3.40;0.93;;;;;;;10.02;69.42;96647.16;3545763;40;20509;-75
2021/05/23 09:29:22;;;;;;;3.07;0.80;;;;;;;9.99;73.52;96671.72;3551871;40;20459;-76
2021/05/23 09:31:57;;;;;;;1.50;0.80;;;;;;;10.15;70.76;96657.63;3547068;40;20847;-75
2021/05/23 09:34:27;;;;;;;2.80;0.80;;;;;;;10.55;73.93;96653.22;3550660;40;20488;-75
2021/05/23 09:36:56;;;;;;;4.30;1.00;;;;;;;11.06;68.12;96634.03;3550918;40;20515;-78
2021/05/23 09:39:34;;;;;;;6.37;0.60;;;;;;;11.85;66.08;96669.44;3544805;40;20448;-76
2021/05/23 09:42:03;;;;;;;4.37;0.90;;;;;;;12.25;61.58;96670.94;3547726;40;20471;-78
2021/05/23 09:44:30;;;;;;;3.40;0.93;;;;;;;12.66;62.31;96669.63;3542316;40;20581;-75
2021/05/23 09:47:01;;;;;;;1.87;0.70;;;;;;;13.21;59.36;96669.78;3536905;40;20500;-75
2021/05/23 09:49:30;;;;;;;3.00;0.70;;;;;;;13.24;57.47;96672.19;3547252;40;20935;-76
2021/05/23 09:52:00;;;;;;;4.93;0.80;;;;;;;13.72;58.09;96665.81;3542404;40;20541;-75
2021/05/23 09:54:29;;;;;;;1.70;0.60;;;;;;;13.75;55.07;96653.25;3539143;40;20942;-74
2021/05/23 09:56:58;;;;;;;1.40;0.60;;;;;;;14.45;56.06;96658.97;3548522;40;20849;-76
2021/05/23 09:59:26;;;;;;;2.00;0.80;;;;;;;14.68;54.70;96632.50;3548705;40;20820;-75
2021/05/23 10:02:05;;;;;;;3.70;0.90;;;;;;;14.39;52.47;96662.13;3544342;40;20934;-75
2021/05/23 10:04:33;;;;;;;3.73;0.70;;;;;;;14.95;55.14;96660.94;3547836;40;20463;-74
2021/05/23 10:07:04;;;;;;;5.20;0.70;;;;;;;15.39;54.73;96661.56;3541097;40;20494;-75
2021/05/23 10:09:32;;;;;;;1.20;0.60;;;;;;;14.95;51.48;96661.78;3544700;40;20666;-75
2021/05/23 10:12:01;;;;;;;3.33;0.70;;;;;;;14.80;52.19;96674.47;3536541;40;20733;-77
2021/05/23 10:14:29;;;;;;;1.53;0.70;;;;;;;14.15;51.58;96672.84;3544768;40;20868;-76
2021/05/23 10:16:57;;;;;;;6.77;0.90;;;;;;;13.53;53.10;96674.34;3547134;40;20903;-77
2021/05/23 10:19:27;;;;;;;3.60;0.77;;;;;;;13.46;52.82;96676.63;3549388;40;20837;-76
2021/05/23 10:21:56;;;;;;;4.57;0.97;;;;;;;13.80;53.57;96673.94;3548302;40;20849;-78
2021/05/23 10:24:29;;;;;;;2.53;0.70;;;;;;;14.87;52.43;96660.78;3550473;40;20450;-75
2021/05/23 10:27:04;;;;;;;1.67;0.97;;;;;;;15.06;48.15;96670.59;3551124;40;20522;-78
2021/05/23 10:29:33;;;;;;;2.00;0.80;;;;;;;15.00;48.23;96666.69;3545018;40;20743;-76
2021/05/23 10:32:06;;;;;;;2.70;0.70;;;;;;;15.22;47.76;96660.38;3535974;40;20478;-76
2021/05/23 10:34:41;;;;;;;5.20;2.13;;;;;;;16.02;46.75;96670.06;3546979;40;20812;-77
2021/05/23 10:37:08;;;;;;;1.63;0.60;;;;;;;16.39;45.62;96660.63;3547042;40;20463;-77
2021/05/23 10:39:39;;;;;;;1.57;0.70;;;;;;;15.84;46.82;96669.06;3552036;40;20691;-78
2021/05/23 10:42:09;;;;;;;2.60;0.90;;;;;;;14.85;48.38;96660.91;3546285;40;20555;-78
2021/05/23 10:44:41;;;;;;;5.17;0.80;;;;;;;14.10;49.95;96669.78;3551154;40;20530;-77
2021/05/23 10:47:14;;;;;;;4.00;0.80;;;;;;;13.15;50.09;96665.00;3539869;40;20457;-73
2021/05/23 10:49:53;;;;;;;3.40;0.80;;;;;;;12.50;53.48;96669.13;3547567;40;20444;-74
2021/05/23 10:52:23;;;;;;;8.27;0.80;;;;;;;12.49;54.31;96688.47;3535559;40;20523;-74
2021/05/23 10:55:04;;;;;;;3.47;0.70;;;;;;;11.94;57.01;96703.88;3541287;40;20833;-75
2021/05/23 10:57:44;;;;;;;4.60;0.70;;;;;;;11.01;62.69;96714.75;3546626;40;20514;-75
2021/05/23 11:00:19;;;;;;;2.80;0.80;;;;;;;10.29;67.99;96723.84;3541364;40;20436;-75
2021/05/23 11:02:47;;;;;;;1.57;0.77;;;;;;;9.89;73.26;96721.19;3542509;40;20874;-74
2021/05/23 11:05:17;;;;;;;0.87;0.60;;;;;;;9.92;73.25;96728.00;3548738;40;20449;-74
2021/05/23 11:07:55;;;;;;;5.67;1.27;;;;;;;10.20;72.19;96715.75;3550847;40;20777;-76
2021/05/23 11:10:26;;;;;;;0.90;0.60;;;;;;;11.04;70.52;96707.50;3541167;40;20772;-72
2021/05/23 11:12:58;;;;;;;1.60;0.70;;;;;;;11.43;70.70;96694.34;3543739;40;20833;-74
2021/05/23 11:15:40;;;;;;;5.97;0.90;;;;;;;11.90;68.84;96692.78;3547199;40;20833;-74
2021/05/23 11:18:07;;;;;;;5.13;0.63;;;;;;;12.45;61.42;96693.13;3550040;40;20931;-76
2021/05/23 11:20:38;;;;;;;5.27;0.60;;;;;;;13.00;58.76;96685.47;3549548;40;20958;-76
2021/05/23 11:23:07;;;;;;;3.33;0.70;;;;;;;13.25;55.58;96685.22;3551191;40;20483;-75
2021/05/23 11:25:37;;;;;;;4.00;0.77;;;;;;;13.63;53.05;96681.38;3546472;40;20836;-76
2021/05/23 11:28:06;;;;;;;4.53;0.73;;;;;;;13.36;52.59;96683.56;3548979;40;20806;-75
2021/05/23 11:30:35;;;;;;;1.37;0.63;;;;;;;13.57;51.50;96673.16;3537500;40;20465;-76
2021/05/23 11:33:05;;;;;;;1.77;0.60;;;;;;;13.97;51.33;96670.75;3549233;40;20448;-76
2021/05/23 11:35:36;;;;;;;2.30;0.63;;;;;;;14.31;50.68;96665.38;3543467;40;20681;-75
2021/05/23 11:38:04;;;;;;;1.00;0.60;;;;;;;13.84;48.81;96670.94;3550833;40;20547;-74
2021/05/23 11:40:40;;;;;;;1.27;0.57;;;;;;;14.26;49.39;96656.19;3549931;40;20437;-76
2021/05/23 11:43:10;;;;;;;3.87;0.80;;;;;;;14.20;47.31;96662.78;3555266;40;20889;-75
2021/05/23 11:45:38;;;;;;;2.60;0.50;;;;;;;14.34;48.72;96653.75;3547829;40;20449;-74
2021/05/23 11:48:08;;;;;;;2.60;0.63;;;;;;;14.89;45.74;96648.28;3550495;40;20453;-75
2021/05/23 11:50:38;;;;;;;1.83;0.80;;;;;;;15.58;46.36;96659.00;3548635;40;20527;-76